Saint Paul, South Carolina
Current Conditions -  °F | °C
As of 8:58 AM on Sunday 25 Jan 2015 (Local Time) from KSSC Reporting Station
Clear Clear  
Wind Chill: 38°   Ceiling: Unl
Heat Index: 38°   Visibility: 10mi
Dew Point: 29°   Wind: 2mph
Humidity: 70%   Direction: 230°SW
Pressure: 29.96"   Gusts: NA
Location:  33.5851°N, 80.3623°W
Report Text: KSSC 251358Z AUTO 23002KT 10SM CLR 04/M01 A2996 RMK AO2 SLP148 T00351015 $
Loading
Personal Weather Stations






























Interactive Weather Map New forecast layout! Learn more

10-Day Weather Forecast

Advertisements
Track Severe Weather on mobile